sensor_id;sensor_type;location;lat;lon;timestamp;P1;durP1;ratioP1;P2;durP2;ratioP2
77246;SDS011;66279;42.820;23.374;2023-02-28T00:00:32;4.80;;;3.70;;
77246;SDS011;66279;42.820;23.374;2023-02-28T00:02:58;4.82;;;3.33;;
77246;SDS011;66279;42.820;23.374;2023-02-28T00:05:24;4.07;;;3.38;;
77246;SDS011;66279;42.820;23.374;2023-02-28T00:07:51;4.53;;;4.05;;
77246;SDS011;66279;42.820;23.374;2023-02-28T00:10:18;4.18;;;3.72;;
77246;SDS011;66279;42.820;23.374;2023-02-28T00:12:52;4.93;;;4.10;;
77246;SDS011;66279;42.820;23.374;2023-02-28T00:15:19;4.68;;;4.18;;
77246;SDS011;66279;42.820;23.374;2023-02-28T00:17:45;4.28;;;3.75;;
77246;SDS011;66279;42.820;23.374;2023-02-28T00:20:11;4.80;;;4.18;;
77246;SDS011;66279;42.820;23.374;2023-02-28T00:22:42;5.90;;;4.22;;
77246;SDS011;66279;42.820;23.374;2023-02-28T00:25:10;5.22;;;4.65;;
77246;SDS011;66279;42.820;23.374;2023-02-28T00:27:37;5.47;;;4.80;;
77246;SDS011;66279;42.820;23.374;2023-02-28T00:30:04;5.07;;;4.35;;
77246;SDS011;66279;42.820;23.374;2023-02-28T00:32:31;5.03;;;4.38;;
77246;SDS011;66279;42.820;23.374;2023-02-28T00:34:57;5.07;;;4.57;;
77246;SDS011;66279;42.820;23.374;2023-02-28T00:37:22;4.95;;;4.45;;
77246;SDS011;66279;42.820;23.374;2023-02-28T00:39:48;6.50;;;4.78;;
77246;SDS011;66279;42.820;23.374;2023-02-28T00:42:13;5.55;;;4.65;;
77246;SDS011;66279;42.820;23.374;2023-02-28T00:44:39;7.18;;;4.85;;
77246;SDS011;66279;42.820;23.374;2023-02-28T00:47:04;5.57;;;5.07;;
77246;SDS011;66279;42.820;23.374;2023-02-28T00:49:30;5.78;;;5.07;;
77246;SDS011;66279;42.820;23.374;2023-02-28T00:51:56;5.40;;;4.90;;
77246;SDS011;66279;42.820;23.374;2023-02-28T00:54:22;5.10;;;4.60;;
77246;SDS011;66279;42.820;23.374;2023-02-28T00:56:48;6.03;;;5.00;;
77246;SDS011;66279;42.820;23.374;2023-02-28T00:59:15;5.45;;;4.95;;
77246;SDS011;66279;42.820;23.374;2023-02-28T01:01:42;5.05;;;4.53;;
77246;SDS011;66279;42.820;23.374;2023-02-28T01:04:09;5.55;;;4.53;;
77246;SDS011;66279;42.820;23.374;2023-02-28T01:06:34;5.15;;;4.65;;
77246;SDS011;66279;42.820;23.374;2023-02-28T01:09:01;5.47;;;4.70;;
77246;SDS011;66279;42.820;23.374;2023-02-28T01:11:28;5.88;;;5.15;;
77246;SDS011;66279;42.820;23.374;2023-02-28T01:13:53;6.30;;;5.00;;
77246;SDS011;66279;42.820;23.374;2023-02-28T01:16:19;5.88;;;5.20;;
77246;SDS011;66279;42.820;23.374;2023-02-28T01:18:44;5.43;;;4.93;;
77246;SDS011;66279;42.820;23.374;2023-02-28T01:21:11;6.38;;;5.45;;
77246;SDS011;66279;42.820;23.374;2023-02-28T01:23:39;5.43;;;4.90;;
77246;SDS011;66279;42.820;23.374;2023-02-28T01:26:06;5.72;;;4.70;;
77246;SDS011;66279;42.820;23.374;2023-02-28T01:28:33;7.28;;;5.68;;
77246;SDS011;66279;42.820;23.374;2023-02-28T01:30:59;4.93;;;4.47;;
77246;SDS011;66279;42.820;23.374;2023-02-28T01:33:24;5.40;;;4.90;;
77246;SDS011;66279;42.820;23.374;2023-02-28T01:35:57;5.00;;;4.50;;
77246;SDS011;66279;42.820;23.374;2023-02-28T01:38:26;5.47;;;4.93;;
77246;SDS011;66279;42.820;23.374;2023-02-28T01:40:52;7.10;;;5.15;;
77246;SDS011;66279;42.820;23.374;2023-02-28T01:45:51;6.38;;;4.97;;
77246;SDS011;66279;42.820;23.374;2023-02-28T01:48:18;6.05;;;5.13;;
77246;SDS011;66279;42.820;23.374;2023-02-28T01:50:46;7.40;;;5.65;;
77246;SDS011;66279;42.820;23.374;2023-02-28T01:53:14;6.70;;;5.97;;
77246;SDS011;66279;42.820;23.374;2023-02-28T01:55:43;6.28;;;5.55;;
77246;SDS011;66279;42.820;23.374;2023-02-28T01:58:13;7.85;;;6.28;;
77246;SDS011;66279;42.820;23.374;2023-02-28T02:00:39;6.15;;;5.22;;
77246;SDS011;66279;42.820;23.374;2023-02-28T02:03:12;6.60;;;5.85;;
77246;SDS011;66279;42.820;23.374;2023-02-28T02:05:40;7.10;;;6.30;;
77246;SDS011;66279;42.820;23.374;2023-02-28T02:08:10;9.80;;;6.60;;
77246;SDS011;66279;42.820;23.374;2023-02-28T02:10:42;7.18;;;5.68;;
77246;SDS011;66279;42.820;23.374;2023-02-28T02:36:13;7.03;;;5.63;;
77246;SDS011;66279;42.820;23.374;2023-02-28T02:38:48;8.77;;;5.95;;
77246;SDS011;66279;42.820;23.374;2023-02-28T02:44:03;6.22;;;5.63;;
77246;SDS011;66279;42.820;23.374;2023-02-28T02:46:41;7.45;;;6.63;;
77246;SDS011;66279;42.820;23.374;2023-02-28T02:49:16;8.20;;;6.05;;
77246;SDS011;66279;42.820;23.374;2023-02-28T02:51:49;6.78;;;5.40;;
77246;SDS011;66279;42.820;23.374;2023-02-28T02:54:23;8.10;;;5.53;;
77246;SDS011;66279;42.820;23.374;2023-02-28T02:56:54;7.03;;;5.88;;
77246;SDS011;66279;42.820;23.374;2023-02-28T02:59:24;6.65;;;5.18;;
77246;SDS011;66279;42.820;23.374;2023-02-28T03:01:53;6.00;;;5.00;;
77246;SDS011;66279;42.820;23.374;2023-02-28T03:04:22;6.10;;;4.93;;
77246;SDS011;66279;42.820;23.374;2023-02-28T03:06:50;6.68;;;5.82;;
77246;SDS011;66279;42.820;23.374;2023-02-28T03:09:23;5.18;;;4.60;;
77246;SDS011;66279;42.820;23.374;2023-02-28T03:11:50;3.60;;;3.30;;
77246;SDS011;66279;42.820;23.374;2023-02-28T03:14:30;3.35;;;3.05;;
77246;SDS011;66279;42.820;23.374;2023-02-28T03:23:03;2.65;;;2.42;;
77246;SDS011;66279;42.820;23.374;2023-02-28T03:25:43;3.35;;;2.35;;
77246;SDS011;66279;42.820;23.374;2023-02-28T03:30:55;3.38;;;2.83;;
77246;SDS011;66279;42.820;23.374;2023-02-28T03:33:36;2.88;;;2.35;;
77246;SDS011;66279;42.820;23.374;2023-02-28T03:36:10;2.30;;;1.83;;
77246;SDS011;66279;42.820;23.374;2023-02-28T03:38:51;3.78;;;2.50;;
77246;SDS011;66279;42.820;23.374;2023-02-28T03:41:22;3.10;;;2.60;;
77246;SDS011;66279;42.820;23.374;2023-02-28T03:43:53;3.78;;;2.53;;
77246;SDS011;66279;42.820;23.374;2023-02-28T03:46:23;2.42;;;1.95;;
77246;SDS011;66279;42.820;23.374;2023-02-28T03:48:54;3.38;;;2.50;;
77246;SDS011;66279;42.820;23.374;2023-02-28T03:51:25;4.22;;;3.83;;
77246;SDS011;66279;42.820;23.374;2023-02-28T03:53:53;3.80;;;3.45;;
77246;SDS011;66279;42.820;23.374;2023-02-28T04:02:08;6.15;;;3.80;;
77246;SDS011;66279;42.820;23.374;2023-02-28T04:04:33;2.40;;;2.10;;
77246;SDS011;66279;42.820;23.374;2023-02-28T04:07:04;4.50;;;3.25;;
77246;SDS011;66279;42.820;23.374;2023-02-28T04:09:31;4.97;;;3.67;;
77246;SDS011;66279;42.820;23.374;2023-02-28T04:11:57;3.38;;;2.58;;
77246;SDS011;66279;42.820;23.374;2023-02-28T04:14:23;2.53;;;1.83;;
77246;SDS011;66279;42.820;23.374;2023-02-28T04:16:48;3.33;;;1.92;;
77246;SDS011;66279;42.820;23.374;2023-02-28T04:19:16;5.72;;;3.60;;
77246;SDS011;66279;42.820;23.374;2023-02-28T04:21:47;5.88;;;3.72;;
77246;SDS011;66279;42.820;23.374;2023-02-28T04:24:15;3.65;;;2.88;;
77246;SDS011;66279;42.820;23.374;2023-02-28T04:26:43;3.88;;;2.88;;
77246;SDS011;66279;42.820;23.374;2023-02-28T04:29:11;5.55;;;3.80;;
77246;SDS011;66279;42.820;23.374;2023-02-28T04:31:38;7.35;;;4.45;;
77246;SDS011;66279;42.820;23.374;2023-02-28T04:34:04;5.45;;;3.42;;
77246;SDS011;66279;42.820;23.374;2023-02-28T04:36:30;4.57;;;3.22;;
77246;SDS011;66279;42.820;23.374;2023-02-28T04:38:55;4.93;;;2.58;;
77246;SDS011;66279;42.820;23.374;2023-02-28T04:41:21;6.85;;;2.13;;
77246;SDS011;66279;42.820;23.374;2023-02-28T04:43:47;2.75;;;2.33;;
77246;SDS011;66279;42.820;23.374;2023-02-28T04:46:13;3.97;;;2.83;;
77246;SDS011;66279;42.820;23.374;2023-02-28T04:48:39;3.72;;;2.92;;
77246;SDS011;66279;42.820;23.374;2023-02-28T04:51:09;4.43;;;3.00;;
77246;SDS011;66279;42.820;23.374;2023-02-28T04:53:39;2.92;;;2.50;;
77246;SDS011;66279;42.820;23.374;2023-02-28T04:56:06;5.20;;;3.22;;
77246;SDS011;66279;42.820;23.374;2023-02-28T04:58:32;4.47;;;2.72;;
77246;SDS011;66279;42.820;23.374;2023-02-28T05:03:48;2.42;;;1.90;;
77246;SDS011;66279;42.820;23.374;2023-02-28T05:06:14;3.22;;;2.70;;
77246;SDS011;66279;42.820;23.374;2023-02-28T05:08:40;4.22;;;3.65;;
77246;SDS011;66279;42.820;23.374;2023-02-28T05:11:08;9.10;;;6.97;;
77246;SDS011;66279;42.820;23.374;2023-02-28T05:13:39;8.77;;;7.55;;
77246;SDS011;66279;42.820;23.374;2023-02-28T05:16:05;10.02;;;7.90;;
77246;SDS011;66279;42.820;23.374;2023-02-28T05:18:31;11.18;;;9.32;;
77246;SDS011;66279;42.820;23.374;2023-02-28T05:20:56;13.02;;;10.30;;
77246;SDS011;66279;42.820;23.374;2023-02-28T05:23:22;11.63;;;9.00;;
77246;SDS011;66279;42.820;23.374;2023-02-28T05:25:48;10.88;;;8.10;;
77246;SDS011;66279;42.820;23.374;2023-02-28T05:28:13;9.00;;;6.43;;
77246;SDS011;66279;42.820;23.374;2023-02-28T05:30:39;9.68;;;7.30;;
77246;SDS011;66279;42.820;23.374;2023-02-28T05:33:05;10.35;;;8.52;;
77246;SDS011;66279;42.820;23.374;2023-02-28T05:35:30;9.07;;;7.82;;
77246;SDS011;66279;42.820;23.374;2023-02-28T05:37:57;8.98;;;8.05;;
77246;SDS011;66279;42.820;23.374;2023-02-28T05:40:22;8.93;;;6.43;;
77246;SDS011;66279;42.820;23.374;2023-02-28T05:42:49;8.07;;;7.03;;
77246;SDS011;66279;42.820;23.374;2023-02-28T05:45:15;7.75;;;6.95;;
77246;SDS011;66279;42.820;23.374;2023-02-28T05:47:42;8.55;;;7.47;;
77246;SDS011;66279;42.820;23.374;2023-02-28T05:50:08;7.15;;;5.88;;
77246;SDS011;66279;42.820;23.374;2023-02-28T05:52:35;5.45;;;4.90;;
77246;SDS011;66279;42.820;23.374;2023-02-28T05:55:01;6.22;;;5.63;;
77246;SDS011;66279;42.820;23.374;2023-02-28T05:57:27;6.80;;;6.15;;
77246;SDS011;66279;42.820;23.374;2023-02-28T05:59:52;6.72;;;5.85;;
77246;SDS011;66279;42.820;23.374;2023-02-28T06:02:18;7.25;;;6.53;;
77246;SDS011;66279;42.820;23.374;2023-02-28T06:04:43;7.15;;;6.45;;
77246;SDS011;66279;42.820;23.374;2023-02-28T06:07:09;7.78;;;6.78;;
77246;SDS011;66279;42.820;23.374;2023-02-28T06:09:35;7.68;;;6.88;;
77246;SDS011;66279;42.820;23.374;2023-02-28T06:12:02;6.85;;;6.20;;
77246;SDS011;66279;42.820;23.374;2023-02-28T06:16:56;8.68;;;7.78;;
77246;SDS011;66279;42.820;23.374;2023-02-28T06:19:22;10.43;;;9.52;;
77246;SDS011;66279;42.820;23.374;2023-02-28T06:21:51;34.60;;;29.95;;
77246;SDS011;66279;42.820;23.374;2023-02-28T06:24:20;12.65;;;11.45;;
77246;SDS011;66279;42.820;23.374;2023-02-28T06:26:47;7.47;;;6.70;;
77246;SDS011;66279;42.820;23.374;2023-02-28T06:29:13;8.52;;;7.72;;
77246;SDS011;66279;42.820;23.374;2023-02-28T06:31:42;8.52;;;7.25;;
77246;SDS011;66279;42.820;23.374;2023-02-28T06:34:09;8.43;;;6.53;;
77246;SDS011;66279;42.820;23.374;2023-02-28T06:36:36;7.05;;;6.18;;
77246;SDS011;66279;42.820;23.374;2023-02-28T06:39:06;8.10;;;7.30;;
77246;SDS011;66279;42.820;23.374;2023-02-28T06:41:32;7.43;;;6.63;;
77246;SDS011;66279;42.820;23.374;2023-02-28T06:44:03;7.00;;;6.32;;
77246;SDS011;66279;42.820;23.374;2023-02-28T06:46:30;6.85;;;6.15;;
77246;SDS011;66279;42.820;23.374;2023-02-28T06:48:56;7.38;;;6.55;;
77246;SDS011;66279;42.820;23.374;2023-02-28T06:51:22;6.57;;;5.97;;
77246;SDS011;66279;42.820;23.374;2023-02-28T06:53:49;5.80;;;5.25;;
77246;SDS011;66279;42.820;23.374;2023-02-28T06:56:15;6.53;;;5.93;;
77246;SDS011;66279;42.820;23.374;2023-02-28T06:58:45;6.72;;;6.03;;
77246;SDS011;66279;42.820;23.374;2023-02-28T07:01:13;7.15;;;6.35;;
77246;SDS011;66279;42.820;23.374;2023-02-28T07:03:39;7.05;;;6.38;;
77246;SDS011;66279;42.820;23.374;2023-02-28T07:06:05;6.38;;;5.78;;
77246;SDS011;66279;42.820;23.374;2023-02-28T07:08:31;6.90;;;6.30;;
77246;SDS011;66279;42.820;23.374;2023-02-28T07:10:57;8.70;;;7.90;;
77246;SDS011;66279;42.820;23.374;2023-02-28T07:13:23;7.03;;;6.32;;
77246;SDS011;66279;42.820;23.374;2023-02-28T07:15:56;8.48;;;7.53;;
77246;SDS011;66279;42.820;23.374;2023-02-28T07:18:23;7.57;;;6.88;;
77246;SDS011;66279;42.820;23.374;2023-02-28T07:23:47;7.22;;;6.40;;
77246;SDS011;66279;42.820;23.374;2023-02-28T07:26:14;8.00;;;6.93;;
77246;SDS011;66279;42.820;23.374;2023-02-28T07:28:42;6.40;;;5.80;;
77246;SDS011;66279;42.820;23.374;2023-02-28T07:31:09;6.10;;;5.50;;
77246;SDS011;66279;42.820;23.374;2023-02-28T07:33:35;5.82;;;5.22;;
77246;SDS011;66279;42.820;23.374;2023-02-28T07:36:05;6.13;;;4.45;;
77246;SDS011;66279;42.820;23.374;2023-02-28T07:38:41;4.32;;;3.92;;
77246;SDS011;66279;42.820;23.374;2023-02-28T07:41:08;4.78;;;4.30;;
77246;SDS011;66279;42.820;23.374;2023-02-28T07:43:34;6.03;;;5.43;;
77246;SDS011;66279;42.820;23.374;2023-02-28T07:46:04;5.28;;;4.78;;
77246;SDS011;66279;42.820;23.374;2023-02-28T07:48:31;6.15;;;5.55;;
77246;SDS011;66279;42.820;23.374;2023-02-28T07:50:57;6.80;;;6.10;;
77246;SDS011;66279;42.820;23.374;2023-02-28T07:53:23;6.35;;;5.55;;
77246;SDS011;66279;42.820;23.374;2023-02-28T07:55:49;5.38;;;4.88;;
77246;SDS011;66279;42.820;23.374;2023-02-28T07:58:15;5.78;;;4.53;;
77246;SDS011;66279;42.820;23.374;2023-02-28T08:00:40;27.13;;;19.25;;
77246;SDS011;66279;42.820;23.374;2023-02-28T08:03:06;6.20;;;4.15;;
77246;SDS011;66279;42.820;23.374;2023-02-28T08:05:31;3.78;;;3.30;;
77246;SDS011;66279;42.820;23.374;2023-02-28T08:07:57;5.80;;;3.72;;
77246;SDS011;66279;42.820;23.374;2023-02-28T08:10:22;5.97;;;5.38;;
77246;SDS011;66279;42.820;23.374;2023-02-28T08:12:49;6.90;;;6.28;;
77246;SDS011;66279;42.820;23.374;2023-02-28T08:15:14;8.35;;;6.78;;
77246;SDS011;66279;42.820;23.374;2023-02-28T08:17:40;6.40;;;5.63;;
77246;SDS011;66279;42.820;23.374;2023-02-28T08:20:05;8.13;;;7.32;;
77246;SDS011;66279;42.820;23.374;2023-02-28T08:22:32;12.35;;;9.57;;
77246;SDS011;66279;42.820;23.374;2023-02-28T08:24:57;11.27;;;10.10;;
77246;SDS011;66279;42.820;23.374;2023-02-28T08:27:23;10.25;;;7.47;;
77246;SDS011;66279;42.820;23.374;2023-02-28T08:29:48;9.32;;;7.50;;
77246;SDS011;66279;42.820;23.374;2023-02-28T08:32:14;9.30;;;8.35;;
77246;SDS011;66279;42.820;23.374;2023-02-28T08:34:40;8.57;;;7.43;;
77246;SDS011;66279;42.820;23.374;2023-02-28T08:37:05;10.10;;;8.60;;
77246;SDS011;66279;42.820;23.374;2023-02-28T08:39:33;8.63;;;7.72;;
77246;SDS011;66279;42.820;23.374;2023-02-28T08:44:25;7.10;;;6.40;;
77246;SDS011;66279;42.820;23.374;2023-02-28T08:46:50;7.90;;;5.95;;
77246;SDS011;66279;42.820;23.374;2023-02-28T08:49:16;7.32;;;6.63;;
77246;SDS011;66279;42.820;23.374;2023-02-28T08:51:41;7.32;;;6.63;;
77246;SDS011;66279;42.820;23.374;2023-02-28T08:54:07;7.85;;;7.03;;
77246;SDS011;66279;42.820;23.374;2023-02-28T08:56:33;9.90;;;8.40;;
77246;SDS011;66279;42.820;23.374;2023-02-28T08:58:59;7.97;;;6.30;;
77246;SDS011;66279;42.820;23.374;2023-02-28T09:01:26;9.80;;;7.30;;
77246;SDS011;66279;42.820;23.374;2023-02-28T09:03:53;7.22;;;6.50;;
77246;SDS011;66279;42.820;23.374;2023-02-28T09:06:21;11.07;;;7.60;;
77246;SDS011;66279;42.820;23.374;2023-02-28T09:08:48;11.82;;;8.57;;
77246;SDS011;66279;42.820;23.374;2023-02-28T09:11:15;18.25;;;13.40;;
77246;SDS011;66279;42.820;23.374;2023-02-28T09:13:41;24.77;;;17.17;;
77246;SDS011;66279;42.820;23.374;2023-02-28T09:16:07;14.30;;;10.90;;
77246;SDS011;66279;42.820;23.374;2023-02-28T09:18:36;20.05;;;14.65;;
77246;SDS011;66279;42.820;23.374;2023-02-28T09:21:09;21.73;;;19.20;;
77246;SDS011;66279;42.820;23.374;2023-02-28T09:23:38;13.80;;;10.65;;
77246;SDS011;66279;42.820;23.374;2023-02-28T09:26:04;8.20;;;7.40;;
77246;SDS011;66279;42.820;23.374;2023-02-28T09:28:30;12.15;;;10.70;;
77246;SDS011;66279;42.820;23.374;2023-02-28T09:30:56;12.27;;;10.98;;
77246;SDS011;66279;42.820;23.374;2023-02-28T09:33:23;11.63;;;9.82;;
77246;SDS011;66279;42.820;23.374;2023-02-28T09:35:50;12.40;;;9.90;;
77246;SDS011;66279;42.820;23.374;2023-02-28T09:38:16;15.63;;;11.48;;
77246;SDS011;66279;42.820;23.374;2023-02-28T09:43:21;8.70;;;7.22;;
77246;SDS011;66279;42.820;23.374;2023-02-28T09:45:52;7.50;;;6.03;;
77246;SDS011;66279;42.820;23.374;2023-02-28T09:48:26;5.18;;;4.68;;
77246;SDS011;66279;42.820;23.374;2023-02-28T09:51:00;5.50;;;4.90;;
77246;SDS011;66279;42.820;23.374;2023-02-28T09:53:30;7.40;;;6.68;;
77246;SDS011;66279;42.820;23.374;2023-02-28T09:56:03;6.35;;;5.70;;
77246;SDS011;66279;42.820;23.374;2023-02-28T09:58:37;5.40;;;4.90;;
77246;SDS011;66279;42.820;23.374;2023-02-28T10:01:10;7.97;;;7.07;;
77246;SDS011;66279;42.820;23.374;2023-02-28T10:03:56;5.00;;;4.32;;
77246;SDS011;66279;42.820;23.374;2023-02-28T10:06:28;6.00;;;4.55;;
77246;SDS011;66279;42.820;23.374;2023-02-28T10:09:00;5.82;;;5.10;;
77246;SDS011;66279;42.820;23.374;2023-02-28T10:11:27;5.82;;;4.78;;
77246;SDS011;66279;42.820;23.374;2023-02-28T10:16:46;4.75;;;4.15;;
77246;SDS011;66279;42.820;23.374;2023-02-28T10:22:42;5.85;;;3.75;;
77246;SDS011;66279;42.820;23.374;2023-02-28T10:25:20;5.25;;;4.75;;
77246;SDS011;66279;42.820;23.374;2023-02-28T10:27:47;5.75;;;4.07;;
77246;SDS011;66279;42.820;23.374;2023-02-28T10:30:14;5.07;;;3.38;;
77246;SDS011;66279;42.820;23.374;2023-02-28T10:32:40;5.18;;;4.68;;
77246;SDS011;66279;42.820;23.374;2023-02-28T10:35:19;5.32;;;4.10;;
77246;SDS011;66279;42.820;23.374;2023-02-28T10:37:54;4.32;;;3.72;;
77246;SDS011;66279;42.820;23.374;2023-02-28T10:43:03;4.25;;;3.67;;
77246;SDS011;66279;42.820;23.374;2023-02-28T10:45:37;5.20;;;4.63;;
77246;SDS011;66279;42.820;23.374;2023-02-28T10:58:24;4.40;;;4.00;;
77246;SDS011;66279;42.820;23.374;2023-02-28T11:00:52;7.55;;;3.92;;
77246;SDS011;66279;42.820;23.374;2023-02-28T11:03:36;4.07;;;3.10;;
77246;SDS011;66279;42.820;23.374;2023-02-28T11:06:06;3.90;;;3.50;;
77246;SDS011;66279;42.820;23.374;2023-02-28T11:08:33;5.70;;;3.40;;
77246;SDS011;66279;42.820;23.374;2023-02-28T11:11:01;4.78;;;4.22;;
77246;SDS011;66279;42.820;23.374;2023-02-28T11:13:32;4.20;;;3.63;;
77246;SDS011;66279;42.820;23.374;2023-02-28T11:16:00;3.97;;;3.55;;
77246;SDS011;66279;42.820;23.374;2023-02-28T11:21:04;4.07;;;3.63;;
77246;SDS011;66279;42.820;23.374;2023-02-28T11:23:30;5.63;;;4.38;;
77246;SDS011;66279;42.820;23.374;2023-02-28T11:25:59;4.45;;;3.95;;
77246;SDS011;66279;42.820;23.374;2023-02-28T22:15:16;1.42;;;0.80;;
77246;SDS011;66279;42.820;23.374;2023-02-28T22:17:42;2.05;;;0.88;;
77246;SDS011;66279;42.820;23.374;2023-02-28T22:20:08;1.70;;;0.90;;
77246;SDS011;66279;42.820;23.374;2023-02-28T22:22:34;1.63;;;1.00;;
77246;SDS011;66279;42.820;23.374;2023-02-28T22:25:00;1.65;;;0.88;;
77246;SDS011;66279;42.820;23.374;2023-02-28T22:27:25;1.08;;;0.70;;
77246;SDS011;66279;42.820;23.374;2023-02-28T22:29:53;1.23;;;0.65;;
77246;SDS011;66279;42.820;23.374;2023-02-28T22:34:45;1.42;;;0.70;;
77246;SDS011;66279;42.820;23.374;2023-02-28T22:37:14;0.80;;;0.40;;
77246;SDS011;66279;42.820;23.374;2023-02-28T22:39:40;1.13;;;0.80;;
77246;SDS011;66279;42.820;23.374;2023-02-28T22:42:05;2.30;;;1.13;;
77246;SDS011;66279;42.820;23.374;2023-02-28T22:44:31;0.90;;;0.57;;
77246;SDS011;66279;42.820;23.374;2023-02-28T22:46:56;1.00;;;0.65;;
77246;SDS011;66279;42.820;23.374;2023-02-28T22:49:22;1.33;;;0.80;;
77246;SDS011;66279;42.820;23.374;2023-02-28T22:51:49;1.40;;;0.93;;
77246;SDS011;66279;42.820;23.374;2023-02-28T22:54:15;1.00;;;0.70;;
77246;SDS011;66279;42.820;23.374;2023-02-28T22:56:41;0.85;;;0.60;;
77246;SDS011;66279;42.820;23.374;2023-02-28T22:59:07;1.00;;;0.65;;
77246;SDS011;66279;42.820;23.374;2023-02-28T23:01:36;0.90;;;0.60;;
77246;SDS011;66279;42.820;23.374;2023-02-28T23:04:02;0.85;;;0.80;;
77246;SDS011;66279;42.820;23.374;2023-02-28T23:06:33;1.10;;;0.93;;
77246;SDS011;66279;42.820;23.374;2023-02-28T23:09:07;0.40;;;0.40;;
77246;SDS011;66279;42.820;23.374;2023-02-28T23:11:39;0.52;;;0.52;;
77246;SDS011;66279;42.820;23.374;2023-02-28T23:14:06;0.68;;;0.50;;
77246;SDS011;66279;42.820;23.374;2023-02-28T23:16:40;0.80;;;0.68;;
77246;SDS011;66279;42.820;23.374;2023-02-28T23:19:11;0.65;;;0.60;;
77246;SDS011;66279;42.820;23.374;2023-02-28T23:21:39;0.88;;;0.68;;
77246;SDS011;66279;42.820;23.374;2023-02-28T23:24:07;0.90;;;0.68;;
77246;SDS011;66279;42.820;23.374;2023-02-28T23:26:37;1.48;;;0.45;;
77246;SDS011;66279;42.820;23.374;2023-02-28T23:29:04;0.82;;;0.50;;
77246;SDS011;66279;42.820;23.374;2023-02-28T23:31:30;1.00;;;0.60;;
77246;SDS011;66279;42.820;23.374;2023-02-28T23:33:56;0.95;;;0.52;;
77246;SDS011;66279;42.820;23.374;2023-02-28T23:36:22;1.23;;;0.40;;
77246;SDS011;66279;42.820;23.374;2023-02-28T23:38:49;0.85;;;0.50;;
77246;SDS011;66279;42.820;23.374;2023-02-28T23:41:16;1.13;;;0.50;;
77246;SDS011;66279;42.820;23.374;2023-02-28T23:43:43;0.90;;;0.73;;
77246;SDS011;66279;42.820;23.374;2023-02-28T23:46:09;0.88;;;0.50;;
77246;SDS011;66279;42.820;23.374;2023-02-28T23:48:36;0.88;;;0.40;;
77246;SDS011;66279;42.820;23.374;2023-02-28T23:51:03;0.85;;;0.63;;
77246;SDS011;66279;42.820;23.374;2023-02-28T23:53:34;0.60;;;0.32;;
77246;SDS011;66279;42.820;23.374;2023-02-28T23:56:00;1.42;;;0.65;;
77246;SDS011;66279;42.820;23.374;2023-02-28T23:58:27;0.93;;;0.52;;
